sensor_id;sensor_type;location;lat;lon;timestamp;P1;durP1;ratioP1;P2;durP2;ratioP2
75261;SDS011;63859;51.064;4.580;2022-10-16T00:01:14;3.80;;;2.33;;
75261;SDS011;63859;51.064;4.580;2022-10-16T00:03:44;3.40;;;2.03;;
75261;SDS011;63859;51.064;4.580;2022-10-16T00:06:11;4.85;;;2.03;;
75261;SDS011;63859;51.064;4.580;2022-10-16T00:08:37;5.20;;;2.17;;
75261;SDS011;63859;51.064;4.580;2022-10-16T00:11:09;3.85;;;2.20;;
75261;SDS011;63859;51.064;4.580;2022-10-16T00:13:36;2.70;;;1.88;;
75261;SDS011;63859;51.064;4.580;2022-10-16T00:16:04;4.45;;;1.80;;
75261;SDS011;63859;51.064;4.580;2022-10-16T00:18:30;4.68;;;2.20;;
75261;SDS011;63859;51.064;4.580;2022-10-16T00:21:01;4.60;;;2.57;;
75261;SDS011;63859;51.064;4.580;2022-10-16T00:23:28;4.63;;;1.90;;
75261;SDS011;63859;51.064;4.580;2022-10-16T00:25:59;3.40;;;1.88;;
75261;SDS011;63859;51.064;4.580;2022-10-16T00:28:30;4.97;;;1.73;;
75261;SDS011;63859;51.064;4.580;2022-10-16T00:30:55;3.55;;;1.80;;
75261;SDS011;63859;51.064;4.580;2022-10-16T00:33:21;6.22;;;2.03;;
75261;SDS011;63859;51.064;4.580;2022-10-16T00:35:47;2.25;;;1.63;;
75261;SDS011;63859;51.064;4.580;2022-10-16T00:38:14;2.50;;;1.65;;
75261;SDS011;63859;51.064;4.580;2022-10-16T00:40:39;2.75;;;1.70;;
75261;SDS011;63859;51.064;4.580;2022-10-16T00:43:12;3.22;;;1.70;;
75261;SDS011;63859;51.064;4.580;2022-10-16T00:45:59;2.05;;;1.50;;
75261;SDS011;63859;51.064;4.580;2022-10-16T00:48:25;2.25;;;1.58;;
75261;SDS011;63859;51.064;4.580;2022-10-16T00:50:51;4.45;;;2.10;;
75261;SDS011;63859;51.064;4.580;2022-10-16T00:53:18;2.25;;;2.05;;
75261;SDS011;63859;51.064;4.580;2022-10-16T00:55:44;3.00;;;2.20;;
75261;SDS011;63859;51.064;4.580;2022-10-16T00:58:11;3.75;;;1.80;;
75261;SDS011;63859;51.064;4.580;2022-10-16T01:00:36;1.58;;;1.48;;
75261;SDS011;63859;51.064;4.580;2022-10-16T01:03:03;1.97;;;1.67;;
75261;SDS011;63859;51.064;4.580;2022-10-16T01:08:52;1.55;;;1.42;;
75261;SDS011;63859;51.064;4.580;2022-10-16T01:11:33;4.10;;;1.50;;
75261;SDS011;63859;51.064;4.580;2022-10-16T01:14:02;3.05;;;1.60;;
75261;SDS011;63859;51.064;4.580;2022-10-16T01:17:19;5.50;;;1.70;;
75261;SDS011;63859;51.064;4.580;2022-10-16T01:19:36;2.30;;;1.65;;
75261;SDS011;63859;51.064;4.580;2022-10-16T01:22:15;5.38;;;2.38;;
75261;SDS011;63859;51.064;4.580;2022-10-16T01:24:46;2.60;;;1.50;;
75261;SDS011;63859;51.064;4.580;2022-10-16T01:27:15;2.20;;;1.50;;
75261;SDS011;63859;51.064;4.580;2022-10-16T01:35:36;2.60;;;1.65;;
75261;SDS011;63859;51.064;4.580;2022-10-16T01:38:08;3.65;;;1.70;;
75261;SDS011;63859;51.064;4.580;2022-10-16T01:40:43;1.90;;;1.70;;
75261;SDS011;63859;51.064;4.580;2022-10-16T01:43:14;6.18;;;1.73;;
75261;SDS011;63859;51.064;4.580;2022-10-16T01:45:42;2.35;;;1.73;;
75261;SDS011;63859;51.064;4.580;2022-10-16T01:48:09;3.53;;;1.90;;
75261;SDS011;63859;51.064;4.580;2022-10-16T01:50:39;4.43;;;1.90;;
75261;SDS011;63859;51.064;4.580;2022-10-16T01:53:08;3.42;;;1.60;;
75261;SDS011;63859;51.064;4.580;2022-10-16T01:55:38;2.08;;;1.67;;
75261;SDS011;63859;51.064;4.580;2022-10-16T01:58:08;5.00;;;1.77;;
75261;SDS011;63859;51.064;4.580;2022-10-16T02:00:36;4.95;;;2.35;;
75261;SDS011;63859;51.064;4.580;2022-10-16T02:03:04;2.88;;;1.98;;
75261;SDS011;63859;51.064;4.580;2022-10-16T02:05:34;2.42;;;1.90;;
75261;SDS011;63859;51.064;4.580;2022-10-16T02:08:05;2.72;;;1.65;;
75261;SDS011;63859;51.064;4.580;2022-10-16T02:10:31;3.35;;;1.80;;
75261;SDS011;63859;51.064;4.580;2022-10-16T02:12:59;5.95;;;1.73;;
75261;SDS011;63859;51.064;4.580;2022-10-16T02:15:30;3.22;;;2.00;;
75261;SDS011;63859;51.064;4.580;2022-10-16T02:17:56;4.20;;;1.92;;
75261;SDS011;63859;51.064;4.580;2022-10-16T02:20:22;2.13;;;1.77;;
75261;SDS011;63859;51.064;4.580;2022-10-16T02:22:51;5.20;;;2.22;;
75261;SDS011;63859;51.064;4.580;2022-10-16T02:25:20;1.77;;;1.63;;
75261;SDS011;63859;51.064;4.580;2022-10-16T02:31:06;6.13;;;2.10;;
75261;SDS011;63859;51.064;4.580;2022-10-16T02:33:17;2.70;;;2.10;;
75261;SDS011;63859;51.064;4.580;2022-10-16T02:35:46;2.47;;;1.83;;
75261;SDS011;63859;51.064;4.580;2022-10-16T02:38:15;2.38;;;1.90;;
75261;SDS011;63859;51.064;4.580;2022-10-16T02:40:42;2.70;;;2.00;;
75261;SDS011;63859;51.064;4.580;2022-10-16T02:43:08;3.95;;;1.80;;
75261;SDS011;63859;51.064;4.580;2022-10-16T02:45:35;2.22;;;1.70;;
75261;SDS011;63859;51.064;4.580;2022-10-16T02:48:01;4.28;;;2.20;;
75261;SDS011;63859;51.064;4.580;2022-10-16T02:50:27;2.40;;;1.50;;
75261;SDS011;63859;51.064;4.580;2022-10-16T02:52:52;3.00;;;1.50;;
75261;SDS011;63859;51.064;4.580;2022-10-16T02:55:18;3.78;;;1.77;;
75261;SDS011;63859;51.064;4.580;2022-10-16T02:57:43;4.10;;;1.80;;
75261;SDS011;63859;51.064;4.580;2022-10-16T03:00:10;2.85;;;1.90;;
75261;SDS011;63859;51.064;4.580;2022-10-16T03:02:38;4.57;;;1.70;;
75261;SDS011;63859;51.064;4.580;2022-10-16T03:05:04;3.63;;;1.90;;
75261;SDS011;63859;51.064;4.580;2022-10-16T03:07:30;5.95;;;1.80;;
75261;SDS011;63859;51.064;4.580;2022-10-16T03:09:55;4.65;;;1.70;;
75261;SDS011;63859;51.064;4.580;2022-10-16T03:12:21;6.82;;;1.70;;
75261;SDS011;63859;51.064;4.580;2022-10-16T03:14:47;6.75;;;1.60;;
75261;SDS011;63859;51.064;4.580;2022-10-16T03:17:12;2.47;;;1.83;;
75261;SDS011;63859;51.064;4.580;2022-10-16T03:19:38;7.75;;;2.17;;
75261;SDS011;63859;51.064;4.580;2022-10-16T03:22:04;3.38;;;1.70;;
75261;SDS011;63859;51.064;4.580;2022-10-16T03:24:30;3.03;;;1.70;;
75261;SDS011;63859;51.064;4.580;2022-10-16T03:26:55;4.90;;;1.80;;
75261;SDS011;63859;51.064;4.580;2022-10-16T03:29:21;2.65;;;1.80;;
75261;SDS011;63859;51.064;4.580;2022-10-16T03:31:47;2.67;;;1.70;;
75261;SDS011;63859;51.064;4.580;2022-10-16T03:34:14;7.00;;;1.85;;
75261;SDS011;63859;51.064;4.580;2022-10-16T03:36:40;4.20;;;1.80;;
75261;SDS011;63859;51.064;4.580;2022-10-16T03:39:05;4.57;;;1.73;;
75261;SDS011;63859;51.064;4.580;2022-10-16T03:41:31;6.55;;;2.05;;
75261;SDS011;63859;51.064;4.580;2022-10-16T03:43:57;2.97;;;1.70;;
75261;SDS011;63859;51.064;4.580;2022-10-16T03:46:22;6.07;;;2.00;;
75261;SDS011;63859;51.064;4.580;2022-10-16T03:48:48;3.10;;;1.58;;
75261;SDS011;63859;51.064;4.580;2022-10-16T03:51:13;3.22;;;2.00;;
75261;SDS011;63859;51.064;4.580;2022-10-16T03:53:39;3.78;;;1.70;;
75261;SDS011;63859;51.064;4.580;2022-10-16T03:56:05;5.53;;;1.88;;
75261;SDS011;63859;51.064;4.580;2022-10-16T03:58:31;10.70;;;1.70;;
75261;SDS011;63859;51.064;4.580;2022-10-16T04:00:56;6.55;;;2.70;;
75261;SDS011;63859;51.064;4.580;2022-10-16T04:03:22;7.15;;;2.60;;
75261;SDS011;63859;51.064;4.580;2022-10-16T04:05:48;5.53;;;2.20;;
75261;SDS011;63859;51.064;4.580;2022-10-16T04:08:14;3.28;;;2.05;;
75261;SDS011;63859;51.064;4.580;2022-10-16T04:10:41;6.10;;;2.35;;
75261;SDS011;63859;51.064;4.580;2022-10-16T04:13:08;4.32;;;1.70;;
75261;SDS011;63859;51.064;4.580;2022-10-16T04:15:34;7.22;;;1.98;;
75261;SDS011;63859;51.064;4.580;2022-10-16T04:17:59;3.38;;;1.73;;
75261;SDS011;63859;51.064;4.580;2022-10-16T04:20:25;4.40;;;1.90;;
75261;SDS011;63859;51.064;4.580;2022-10-16T04:22:51;4.28;;;2.15;;
75261;SDS011;63859;51.064;4.580;2022-10-16T04:25:16;6.37;;;2.07;;
75261;SDS011;63859;51.064;4.580;2022-10-16T04:27:42;4.47;;;2.10;;
75261;SDS011;63859;51.064;4.580;2022-10-16T04:30:08;2.53;;;1.80;;
75261;SDS011;63859;51.064;4.580;2022-10-16T04:32:33;4.53;;;1.93;;
75261;SDS011;63859;51.064;4.580;2022-10-16T04:34:59;4.13;;;2.70;;
75261;SDS011;63859;51.064;4.580;2022-10-16T04:37:25;4.68;;;2.17;;
75261;SDS011;63859;51.064;4.580;2022-10-16T04:39:52;3.17;;;1.87;;
75261;SDS011;63859;51.064;4.580;2022-10-16T04:42:18;7.05;;;2.33;;
75261;SDS011;63859;51.064;4.580;2022-10-16T04:44:44;2.63;;;1.80;;
75261;SDS011;63859;51.064;4.580;2022-10-16T04:47:10;4.60;;;1.97;;
75261;SDS011;63859;51.064;4.580;2022-10-16T04:49:36;6.40;;;2.47;;
75261;SDS011;63859;51.064;4.580;2022-10-16T04:52:01;5.60;;;2.10;;
75261;SDS011;63859;51.064;4.580;2022-10-16T04:54:27;6.03;;;2.00;;
75261;SDS011;63859;51.064;4.580;2022-10-16T04:56:53;7.05;;;2.08;;
75261;SDS011;63859;51.064;4.580;2022-10-16T04:59:19;3.65;;;2.15;;
75261;SDS011;63859;51.064;4.580;2022-10-16T05:01:45;3.70;;;2.20;;
75261;SDS011;63859;51.064;4.580;2022-10-16T05:04:10;6.07;;;2.08;;
75261;SDS011;63859;51.064;4.580;2022-10-16T05:06:36;4.37;;;2.10;;
75261;SDS011;63859;51.064;4.580;2022-10-16T05:09:04;6.10;;;2.10;;
75261;SDS011;63859;51.064;4.580;2022-10-16T05:11:30;5.90;;;2.27;;
75261;SDS011;63859;51.064;4.580;2022-10-16T05:13:56;5.88;;;2.30;;
75261;SDS011;63859;51.064;4.580;2022-10-16T05:16:22;9.15;;;2.10;;
75261;SDS011;63859;51.064;4.580;2022-10-16T05:18:47;7.03;;;1.90;;
75261;SDS011;63859;51.064;4.580;2022-10-16T05:21:13;4.57;;;1.92;;
75261;SDS011;63859;51.064;4.580;2022-10-16T05:23:38;10.23;;;2.27;;
75261;SDS011;63859;51.064;4.580;2022-10-16T05:26:04;2.10;;;1.85;;
75261;SDS011;63859;51.064;4.580;2022-10-16T05:28:31;6.10;;;1.97;;
75261;SDS011;63859;51.064;4.580;2022-10-16T05:30:57;5.80;;;2.13;;
75261;SDS011;63859;51.064;4.580;2022-10-16T05:33:25;5.87;;;2.43;;
75261;SDS011;63859;51.064;4.580;2022-10-16T05:35:51;6.07;;;2.63;;
75261;SDS011;63859;51.064;4.580;2022-10-16T05:38:17;4.37;;;2.70;;
75261;SDS011;63859;51.064;4.580;2022-10-16T05:40:43;6.00;;;2.43;;
75261;SDS011;63859;51.064;4.580;2022-10-16T05:43:16;4.47;;;2.50;;
75261;SDS011;63859;51.064;4.580;2022-10-16T05:45:41;4.73;;;2.13;;
75261;SDS011;63859;51.064;4.580;2022-10-16T05:48:07;6.25;;;2.30;;
75261;SDS011;63859;51.064;4.580;2022-10-16T05:50:33;4.57;;;2.00;;
75261;SDS011;63859;51.064;4.580;2022-10-16T05:52:58;4.13;;;1.87;;
75261;SDS011;63859;51.064;4.580;2022-10-16T05:55:24;4.13;;;2.03;;
75261;SDS011;63859;51.064;4.580;2022-10-16T05:57:50;5.00;;;2.00;;
75261;SDS011;63859;51.064;4.580;2022-10-16T06:00:18;7.38;;;2.10;;
75261;SDS011;63859;51.064;4.580;2022-10-16T06:02:44;3.70;;;2.13;;
75261;SDS011;63859;51.064;4.580;2022-10-16T06:05:09;4.27;;;1.83;;
75261;SDS011;63859;51.064;4.580;2022-10-16T06:07:35;6.60;;;2.10;;
75261;SDS011;63859;51.064;4.580;2022-10-16T06:10:01;6.07;;;2.15;;
75261;SDS011;63859;51.064;4.580;2022-10-16T06:12:28;4.32;;;2.10;;
75261;SDS011;63859;51.064;4.580;2022-10-16T06:14:53;3.03;;;2.00;;
75261;SDS011;63859;51.064;4.580;2022-10-16T06:17:19;7.13;;;2.20;;
75261;SDS011;63859;51.064;4.580;2022-10-16T06:19:44;4.63;;;2.72;;
75261;SDS011;63859;51.064;4.580;2022-10-16T06:22:10;7.30;;;2.38;;
75261;SDS011;63859;51.064;4.580;2022-10-16T06:24:35;5.80;;;2.30;;
75261;SDS011;63859;51.064;4.580;2022-10-16T06:27:02;6.40;;;2.65;;
75261;SDS011;63859;51.064;4.580;2022-10-16T06:29:28;4.38;;;2.60;;
75261;SDS011;63859;51.064;4.580;2022-10-16T06:31:54;2.95;;;2.20;;
75261;SDS011;63859;51.064;4.580;2022-10-16T06:34:19;4.35;;;2.95;;
75261;SDS011;63859;51.064;4.580;2022-10-16T06:36:45;4.07;;;2.22;;
75261;SDS011;63859;51.064;4.580;2022-10-16T06:39:10;5.35;;;2.60;;
75261;SDS011;63859;51.064;4.580;2022-10-16T06:41:36;12.13;;;2.78;;
75261;SDS011;63859;51.064;4.580;2022-10-16T06:44:04;4.93;;;2.70;;
75261;SDS011;63859;51.064;4.580;2022-10-16T06:46:31;7.57;;;2.85;;
75261;SDS011;63859;51.064;4.580;2022-10-16T06:48:57;10.32;;;2.80;;
75261;SDS011;63859;51.064;4.580;2022-10-16T06:51:23;6.87;;;2.47;;
75261;SDS011;63859;51.064;4.580;2022-10-16T06:53:51;6.17;;;2.50;;
75261;SDS011;63859;51.064;4.580;2022-10-16T06:56:19;10.07;;;2.95;;
75261;SDS011;63859;51.064;4.580;2022-10-16T06:58:50;7.05;;;3.08;;
75261;SDS011;63859;51.064;4.580;2022-10-16T07:01:17;4.93;;;2.90;;
75261;SDS011;63859;51.064;4.580;2022-10-16T07:03:44;5.78;;;2.78;;
75261;SDS011;63859;51.064;4.580;2022-10-16T07:06:11;5.53;;;2.42;;
75261;SDS011;63859;51.064;4.580;2022-10-16T07:08:39;9.52;;;2.70;;
75261;SDS011;63859;51.064;4.580;2022-10-16T07:11:07;6.70;;;2.83;;
75261;SDS011;63859;51.064;4.580;2022-10-16T07:13:40;6.00;;;2.50;;
75261;SDS011;63859;51.064;4.580;2022-10-16T07:16:08;5.30;;;2.47;;
75261;SDS011;63859;51.064;4.580;2022-10-16T07:18:35;8.25;;;2.33;;
75261;SDS011;63859;51.064;4.580;2022-10-16T07:21:08;4.95;;;2.60;;
75261;SDS011;63859;51.064;4.580;2022-10-16T07:23:36;5.43;;;2.30;;
75261;SDS011;63859;51.064;4.580;2022-10-16T07:26:02;5.60;;;2.33;;
75261;SDS011;63859;51.064;4.580;2022-10-16T07:28:28;6.43;;;2.60;;
75261;SDS011;63859;51.064;4.580;2022-10-16T07:30:54;6.97;;;2.63;;
75261;SDS011;63859;51.064;4.580;2022-10-16T07:33:19;5.60;;;2.35;;
75261;SDS011;63859;51.064;4.580;2022-10-16T07:35:49;6.72;;;2.50;;
75261;SDS011;63859;51.064;4.580;2022-10-16T07:38:15;6.32;;;2.47;;
75261;SDS011;63859;51.064;4.580;2022-10-16T07:40:41;8.77;;;2.30;;
75261;SDS011;63859;51.064;4.580;2022-10-16T07:43:07;5.70;;;2.30;;
75261;SDS011;63859;51.064;4.580;2022-10-16T07:45:32;6.35;;;2.13;;
75261;SDS011;63859;51.064;4.580;2022-10-16T07:47:58;8.57;;;2.28;;
75261;SDS011;63859;51.064;4.580;2022-10-16T07:50:23;6.40;;;2.10;;
75261;SDS011;63859;51.064;4.580;2022-10-16T07:52:49;4.43;;;2.00;;
75261;SDS011;63859;51.064;4.580;2022-10-16T07:55:15;7.32;;;2.45;;
75261;SDS011;63859;51.064;4.580;2022-10-16T07:57:40;8.30;;;1.98;;
75261;SDS011;63859;51.064;4.580;2022-10-16T08:00:06;3.53;;;2.50;;
75261;SDS011;63859;51.064;4.580;2022-10-16T08:02:33;9.50;;;2.55;;
75261;SDS011;63859;51.064;4.580;2022-10-16T08:04:58;3.55;;;1.88;;
75261;SDS011;63859;51.064;4.580;2022-10-16T08:07:24;7.75;;;2.17;;
75261;SDS011;63859;51.064;4.580;2022-10-16T08:09:49;4.15;;;1.88;;
75261;SDS011;63859;51.064;4.580;2022-10-16T08:12:16;6.70;;;2.13;;
75261;SDS011;63859;51.064;4.580;2022-10-16T08:14:42;5.53;;;2.33;;
75261;SDS011;63859;51.064;4.580;2022-10-16T08:17:07;4.60;;;1.83;;
75261;SDS011;63859;51.064;4.580;2022-10-16T08:19:33;7.25;;;2.30;;
75261;SDS011;63859;51.064;4.580;2022-10-16T08:21:59;5.70;;;2.20;;
75261;SDS011;63859;51.064;4.580;2022-10-16T08:24:26;6.82;;;1.85;;
75261;SDS011;63859;51.064;4.580;2022-10-16T08:26:53;10.13;;;2.53;;
75261;SDS011;63859;51.064;4.580;2022-10-16T08:29:19;9.57;;;1.80;;
75261;SDS011;63859;51.064;4.580;2022-10-16T08:31:45;3.92;;;1.83;;
75261;SDS011;63859;51.064;4.580;2022-10-16T08:34:10;5.85;;;2.00;;
75261;SDS011;63859;51.064;4.580;2022-10-16T08:36:36;3.05;;;1.83;;
75261;SDS011;63859;51.064;4.580;2022-10-16T08:39:02;6.47;;;1.98;;
75261;SDS011;63859;51.064;4.580;2022-10-16T08:44:25;5.47;;;1.77;;
75261;SDS011;63859;51.064;4.580;2022-10-16T08:47:13;5.88;;;1.85;;
75261;SDS011;63859;51.064;4.580;2022-10-16T08:52:22;2.22;;;1.70;;
75261;SDS011;63859;51.064;4.580;2022-10-16T08:54:53;5.30;;;1.88;;
75261;SDS011;63859;51.064;4.580;2022-10-16T08:57:21;3.53;;;1.70;;
75261;SDS011;63859;51.064;4.580;2022-10-16T08:59:54;3.63;;;1.85;;
75261;SDS011;63859;51.064;4.580;2022-10-16T09:10:29;9.98;;;1.98;;
75261;SDS011;63859;51.064;4.580;2022-10-16T09:16:30;3.90;;;1.80;;
75261;SDS011;63859;51.064;4.580;2022-10-16T09:23:53;7.57;;;2.28;;
75261;SDS011;63859;51.064;4.580;2022-10-16T09:26:40;5.47;;;2.20;;
75261;SDS011;63859;51.064;4.580;2022-10-16T09:29:08;7.72;;;2.40;;
75261;SDS011;63859;51.064;4.580;2022-10-16T09:31:37;6.35;;;2.08;;
75261;SDS011;63859;51.064;4.580;2022-10-16T09:34:03;5.88;;;2.40;;
75261;SDS011;63859;51.064;4.580;2022-10-16T09:36:41;12.77;;;2.20;;
75261;SDS011;63859;51.064;4.580;2022-10-16T09:39:10;8.10;;;1.98;;
75261;SDS011;63859;51.064;4.580;2022-10-16T09:41:39;6.68;;;2.05;;
75261;SDS011;63859;51.064;4.580;2022-10-16T09:44:24;7.32;;;1.80;;
75261;SDS011;63859;51.064;4.580;2022-10-16T09:47:03;5.32;;;1.80;;
75261;SDS011;63859;51.064;4.580;2022-10-16T09:49:39;11.48;;;2.03;;
75261;SDS011;63859;51.064;4.580;2022-10-16T09:52:15;5.43;;;1.55;;
75261;SDS011;63859;51.064;4.580;2022-10-16T09:54:54;5.93;;;1.60;;
75261;SDS011;63859;51.064;4.580;2022-10-16T09:57:24;9.73;;;2.30;;
75261;SDS011;63859;51.064;4.580;2022-10-16T09:59:51;11.00;;;1.92;;
75261;SDS011;63859;51.064;4.580;2022-10-16T10:02:36;11.90;;;2.10;;
75261;SDS011;63859;51.064;4.580;2022-10-16T10:05:04;8.07;;;1.80;;
75261;SDS011;63859;51.064;4.580;2022-10-16T10:07:42;12.60;;;2.35;;
75261;SDS011;63859;51.064;4.580;2022-10-16T10:10:18;9.02;;;2.00;;
75261;SDS011;63859;51.064;4.580;2022-10-16T10:12:46;5.32;;;2.00;;
75261;SDS011;63859;51.064;4.580;2022-10-16T10:15:13;9.40;;;2.05;;
75261;SDS011;63859;51.064;4.580;2022-10-16T10:17:56;5.32;;;1.55;;
75261;SDS011;63859;51.064;4.580;2022-10-16T10:20:33;8.45;;;2.08;;
75261;SDS011;63859;51.064;4.580;2022-10-16T10:23:00;7.40;;;1.90;;
75261;SDS011;63859;51.064;4.580;2022-10-16T10:25:53;5.80;;;1.80;;
75261;SDS011;63859;51.064;4.580;2022-10-16T10:28:49;12.80;;;1.98;;
75261;SDS011;63859;51.064;4.580;2022-10-16T10:31:20;8.02;;;1.67;;
75261;SDS011;63859;51.064;4.580;2022-10-16T10:37:02;9.23;;;1.92;;
75261;SDS011;63859;51.064;4.580;2022-10-16T10:39:41;8.00;;;1.90;;
75261;SDS011;63859;51.064;4.580;2022-10-16T10:42:21;6.50;;;1.80;;
75261;SDS011;63859;51.064;4.580;2022-10-16T10:47:52;7.20;;;1.80;;
75261;SDS011;63859;51.064;4.580;2022-10-16T11:01:59;5.13;;;1.50;;
75261;SDS011;63859;51.064;4.580;2022-10-16T11:07:26;3.65;;;1.52;;
75261;SDS011;63859;51.064;4.580;2022-10-16T11:12:49;5.15;;;1.90;;
75261;SDS011;63859;51.064;4.580;2022-10-16T11:15:29;4.85;;;1.40;;
75261;SDS011;63859;51.064;4.580;2022-10-16T11:20:42;11.45;;;1.90;;
75261;SDS011;63859;51.064;4.580;2022-10-16T11:26:19;10.20;;;1.75;;
75261;SDS011;63859;51.064;4.580;2022-10-16T11:28:55;6.20;;;1.90;;
75261;SDS011;63859;51.064;4.580;2022-10-16T11:31:34;7.60;;;2.25;;
75261;SDS011;63859;51.064;4.580;2022-10-16T11:34:24;7.60;;;2.08;;
75261;SDS011;63859;51.064;4.580;2022-10-16T11:36:53;9.85;;;1.83;;
75261;SDS011;63859;51.064;4.580;2022-10-16T11:39:25;9.60;;;1.80;;
75261;SDS011;63859;51.064;4.580;2022-10-16T11:41:53;4.70;;;1.50;;
75261;SDS011;63859;51.064;4.580;2022-10-16T11:47:40;5.50;;;1.50;;
75261;SDS011;63859;51.064;4.580;2022-10-16T11:55:17;6.72;;;1.50;;
75261;SDS011;63859;51.064;4.580;2022-10-16T11:57:50;4.65;;;1.77;;
75261;SDS011;63859;51.064;4.580;2022-10-16T12:03:00;5.15;;;1.38;;
75261;SDS011;63859;51.064;4.580;2022-10-16T12:08:12;9.52;;;2.08;;
75261;SDS011;63859;51.064;4.580;2022-10-16T12:10:40;3.58;;;1.30;;
75261;SDS011;63859;51.064;4.580;2022-10-16T12:13:31;4.82;;;1.50;;
75261;SDS011;63859;51.064;4.580;2022-10-16T12:16:30;4.47;;;1.60;;
75261;SDS011;63859;51.064;4.580;2022-10-16T12:18:49;3.40;;;1.35;;
75261;SDS011;63859;51.064;4.580;2022-10-16T12:21:30;8.05;;;1.63;;
75261;SDS011;63859;51.064;4.580;2022-10-16T12:23:57;9.15;;;2.00;;
75261;SDS011;63859;51.064;4.580;2022-10-16T12:26:28;1.98;;;1.30;;
75261;SDS011;63859;51.064;4.580;2022-10-16T12:29:09;6.30;;;1.42;;
75261;SDS011;63859;51.064;4.580;2022-10-16T12:31:43;5.10;;;1.40;;
75261;SDS011;63859;51.064;4.580;2022-10-16T12:34:19;4.43;;;1.30;;
75261;SDS011;63859;51.064;4.580;2022-10-16T12:36:52;8.25;;;2.00;;
75261;SDS011;63859;51.064;4.580;2022-10-16T12:39:23;4.00;;;1.45;;
75261;SDS011;63859;51.064;4.580;2022-10-16T12:42:00;5.93;;;1.50;;
75261;SDS011;63859;51.064;4.580;2022-10-16T12:44:31;3.13;;;1.30;;
75261;SDS011;63859;51.064;4.580;2022-10-16T12:46:58;2.92;;;1.58;;
75261;SDS011;63859;51.064;4.580;2022-10-16T12:49:37;3.90;;;1.63;;
75261;SDS011;63859;51.064;4.580;2022-10-16T12:52:04;4.10;;;1.55;;
75261;SDS011;63859;51.064;4.580;2022-10-16T12:54:48;6.63;;;1.65;;
75261;SDS011;63859;51.064;4.580;2022-10-16T13:08:50;6.43;;;1.42;;
75261;SDS011;63859;51.064;4.580;2022-10-16T13:19:11;4.28;;;1.20;;
75261;SDS011;63859;51.064;4.580;2022-10-16T13:29:31;4.38;;;1.55;;
75261;SDS011;63859;51.064;4.580;2022-10-16T13:31:58;19.88;;;2.95;;
75261;SDS011;63859;51.064;4.580;2022-10-16T13:34:32;5.00;;;1.40;;
75261;SDS011;63859;51.064;4.580;2022-10-16T13:36:58;4.20;;;1.55;;
75261;SDS011;63859;51.064;4.580;2022-10-16T13:39:27;8.35;;;1.67;;
75261;SDS011;63859;51.064;4.580;2022-10-16T13:41:58;5.90;;;2.05;;
75261;SDS011;63859;51.064;4.580;2022-10-16T13:44:49;3.47;;;1.48;;
75261;SDS011;63859;51.064;4.580;2022-10-16T13:49:46;7.97;;;1.50;;
75261;SDS011;63859;51.064;4.580;2022-10-16T13:52:19;4.05;;;1.20;;
75261;SDS011;63859;51.064;4.580;2022-10-16T13:54:45;8.38;;;1.73;;
75261;SDS011;63859;51.064;4.580;2022-10-16T13:57:15;5.05;;;1.48;;
75261;SDS011;63859;51.064;4.580;2022-10-16T13:59:41;5.07;;;1.52;;
75261;SDS011;63859;51.064;4.580;2022-10-16T14:04:56;3.03;;;1.60;;
75261;SDS011;63859;51.064;4.580;2022-10-16T14:07:27;7.20;;;1.55;;
75261;SDS011;63859;51.064;4.580;2022-10-16T14:09:56;4.40;;;1.42;;
75261;SDS011;63859;51.064;4.580;2022-10-16T14:12:30;8.27;;;1.50;;
75261;SDS011;63859;51.064;4.580;2022-10-16T14:14:56;4.55;;;1.70;;
75261;SDS011;63859;51.064;4.580;2022-10-16T14:17:34;6.65;;;1.40;;
75261;SDS011;63859;51.064;4.580;2022-10-16T14:20:02;5.68;;;1.50;;
75261;SDS011;63859;51.064;4.580;2022-10-16T14:22:32;1.65;;;1.15;;
75261;SDS011;63859;51.064;4.580;2022-10-16T14:28:03;3.30;;;1.58;;
75261;SDS011;63859;51.064;4.580;2022-10-16T14:30:29;6.15;;;2.20;;
75261;SDS011;63859;51.064;4.580;2022-10-16T14:33:05;3.58;;;1.55;;
75261;SDS011;63859;51.064;4.580;2022-10-16T14:35:44;5.82;;;1.50;;
75261;SDS011;63859;51.064;4.580;2022-10-16T14:38:18;2.45;;;1.27;;
75261;SDS011;63859;51.064;4.580;2022-10-16T14:40:46;5.28;;;1.23;;
75261;SDS011;63859;51.064;4.580;2022-10-16T14:43:14;2.72;;;1.80;;
75261;SDS011;63859;51.064;4.580;2022-10-16T14:46:06;4.03;;;1.40;;
75261;SDS011;63859;51.064;4.580;2022-10-16T14:48:41;3.75;;;1.88;;
75261;SDS011;63859;51.064;4.580;2022-10-16T14:51:16;8.57;;;1.73;;
75261;SDS011;63859;51.064;4.580;2022-10-16T14:53:42;6.38;;;2.03;;
75261;SDS011;63859;51.064;4.580;2022-10-16T14:56:16;3.85;;;1.83;;
75261;SDS011;63859;51.064;4.580;2022-10-16T14:58:47;4.22;;;1.70;;
75261;SDS011;63859;51.064;4.580;2022-10-16T15:01:14;5.70;;;1.60;;
75261;SDS011;63859;51.064;4.580;2022-10-16T15:03:40;3.03;;;1.23;;
75261;SDS011;63859;51.064;4.580;2022-10-16T15:06:10;11.20;;;2.00;;
75261;SDS011;63859;51.064;4.580;2022-10-16T15:08:37;7.53;;;1.63;;
75261;SDS011;63859;51.064;4.580;2022-10-16T15:11:03;3.35;;;1.15;;
75261;SDS011;63859;51.064;4.580;2022-10-16T15:13:29;7.10;;;1.75;;
75261;SDS011;63859;51.064;4.580;2022-10-16T15:15:55;13.25;;;2.53;;
75261;SDS011;63859;51.064;4.580;2022-10-16T15:18:21;4.80;;;1.67;;
75261;SDS011;63859;51.064;4.580;2022-10-16T15:20:50;6.63;;;2.03;;
75261;SDS011;63859;51.064;4.580;2022-10-16T15:23:17;5.97;;;2.70;;
75261;SDS011;63859;51.064;4.580;2022-10-16T15:25:45;9.10;;;2.75;;
75261;SDS011;63859;51.064;4.580;2022-10-16T15:28:16;3.58;;;1.75;;
75261;SDS011;63859;51.064;4.580;2022-10-16T15:30:42;2.42;;;1.60;;
75261;SDS011;63859;51.064;4.580;2022-10-16T15:33:14;6.95;;;1.52;;
75261;SDS011;63859;51.064;4.580;2022-10-16T15:35:47;5.65;;;1.73;;
75261;SDS011;63859;51.064;4.580;2022-10-16T15:38:14;2.22;;;1.45;;
75261;SDS011;63859;51.064;4.580;2022-10-16T15:40:40;6.80;;;2.10;;
75261;SDS011;63859;51.064;4.580;2022-10-16T15:43:06;11.13;;;1.92;;
75261;SDS011;63859;51.064;4.580;2022-10-16T15:45:32;7.65;;;1.95;;
75261;SDS011;63859;51.064;4.580;2022-10-16T15:47:58;12.00;;;2.05;;
75261;SDS011;63859;51.064;4.580;2022-10-16T15:50:24;6.57;;;2.10;;
75261;SDS011;63859;51.064;4.580;2022-10-16T15:52:50;6.25;;;2.20;;
75261;SDS011;63859;51.064;4.580;2022-10-16T15:55:16;10.07;;;3.28;;
75261;SDS011;63859;51.064;4.580;2022-10-16T15:57:43;10.10;;;2.75;;
75261;SDS011;63859;51.064;4.580;2022-10-16T16:00:11;14.57;;;3.03;;
75261;SDS011;63859;51.064;4.580;2022-10-16T16:02:39;6.78;;;2.50;;
75261;SDS011;63859;51.064;4.580;2022-10-16T16:05:06;6.28;;;2.65;;
75261;SDS011;63859;51.064;4.580;2022-10-16T16:07:33;7.20;;;2.35;;
75261;SDS011;63859;51.064;4.580;2022-10-16T16:10:00;8.93;;;2.60;;
75261;SDS011;63859;51.064;4.580;2022-10-16T16:12:26;7.28;;;2.13;;
75261;SDS011;63859;51.064;4.580;2022-10-16T16:14:52;6.65;;;2.40;;
75261;SDS011;63859;51.064;4.580;2022-10-16T16:17:17;6.97;;;2.50;;
75261;SDS011;63859;51.064;4.580;2022-10-16T16:19:43;9.18;;;2.35;;
75261;SDS011;63859;51.064;4.580;2022-10-16T16:22:10;9.38;;;2.70;;
75261;SDS011;63859;51.064;4.580;2022-10-16T16:24:35;5.60;;;2.20;;
75261;SDS011;63859;51.064;4.580;2022-10-16T16:27:01;9.55;;;2.92;;
75261;SDS011;63859;51.064;4.580;2022-10-16T16:29:27;8.43;;;3.33;;
75261;SDS011;63859;51.064;4.580;2022-10-16T16:31:52;10.43;;;3.22;;
75261;SDS011;63859;51.064;4.580;2022-10-16T16:34:22;10.25;;;3.13;;
75261;SDS011;63859;51.064;4.580;2022-10-16T16:36:49;6.18;;;2.97;;
75261;SDS011;63859;51.064;4.580;2022-10-16T16:39:15;10.20;;;3.08;;
75261;SDS011;63859;51.064;4.580;2022-10-16T16:41:41;5.60;;;2.70;;
75261;SDS011;63859;51.064;4.580;2022-10-16T16:44:08;9.15;;;3.30;;
75261;SDS011;63859;51.064;4.580;2022-10-16T16:46:35;9.27;;;3.30;;
75261;SDS011;63859;51.064;4.580;2022-10-16T16:49:02;11.05;;;4.32;;